sensor_id;sensor_type;location;lat;lon;timestamp;P1;durP1;ratioP1;P2;durP2;ratioP2
76069;SDS011;64768;51.738;5.852;2022-11-15T00:02:29;39.85;;;20.08;;
76069;SDS011;64768;51.738;5.852;2022-11-15T00:05:09;46.97;;;21.98;;
76069;SDS011;64768;51.738;5.852;2022-11-15T00:07:50;45.03;;;23.10;;
76069;SDS011;64768;51.738;5.852;2022-11-15T00:10:30;43.58;;;21.95;;
76069;SDS011;64768;51.738;5.852;2022-11-15T00:16:14;36.60;;;18.08;;
76069;SDS011;64768;51.738;5.852;2022-11-15T00:18:45;44.63;;;22.30;;
76069;SDS011;64768;51.738;5.852;2022-11-15T00:21:19;42.83;;;26.95;;
76069;SDS011;64768;51.738;5.852;2022-11-15T00:24:00;41.65;;;24.20;;
76069;SDS011;64768;51.738;5.852;2022-11-15T00:26:43;42.75;;;22.35;;
76069;SDS011;64768;51.738;5.852;2022-11-15T00:29:24;30.10;;;16.10;;
76069;SDS011;64768;51.738;5.852;2022-11-15T00:35:19;35.83;;;20.55;;
76069;SDS011;64768;51.738;5.852;2022-11-15T00:37:53;35.05;;;17.60;;
76069;SDS011;64768;51.738;5.852;2022-11-15T00:40:34;47.20;;;24.10;;
76069;SDS011;64768;51.738;5.852;2022-11-15T00:43:15;42.47;;;22.80;;
76069;SDS011;64768;51.738;5.852;2022-11-15T00:45:51;53.58;;;27.38;;
76069;SDS011;64768;51.738;5.852;2022-11-15T00:48:32;49.38;;;26.13;;
76069;SDS011;64768;51.738;5.852;2022-11-15T00:51:22;52.03;;;26.15;;
76069;SDS011;64768;51.738;5.852;2022-11-15T00:53:52;43.50;;;23.98;;
76069;SDS011;64768;51.738;5.852;2022-11-15T00:56:24;43.25;;;22.60;;
76069;SDS011;64768;51.738;5.852;2022-11-15T00:59:05;35.83;;;20.80;;
76069;SDS011;64768;51.738;5.852;2022-11-15T01:01:45;34.55;;;15.18;;
76069;SDS011;64768;51.738;5.852;2022-11-15T01:04:23;28.38;;;15.27;;
76069;SDS011;64768;51.738;5.852;2022-11-15T01:07:00;34.78;;;19.05;;
76069;SDS011;64768;51.738;5.852;2022-11-15T01:09:41;21.30;;;10.98;;
76069;SDS011;64768;51.738;5.852;2022-11-15T01:12:22;32.65;;;18.45;;
76069;SDS011;64768;51.738;5.852;2022-11-15T01:14:51;32.83;;;20.50;;
76069;SDS011;64768;51.738;5.852;2022-11-15T01:17:32;35.97;;;21.73;;
76069;SDS011;64768;51.738;5.852;2022-11-15T01:20:13;35.25;;;20.73;;
76069;SDS011;64768;51.738;5.852;2022-11-15T01:22:56;33.45;;;16.98;;
76069;SDS011;64768;51.738;5.852;2022-11-15T01:25:26;38.33;;;20.20;;
76069;SDS011;64768;51.738;5.852;2022-11-15T01:28:07;28.58;;;15.32;;
76069;SDS011;64768;51.738;5.852;2022-11-15T01:30:37;34.35;;;20.65;;
76069;SDS011;64768;51.738;5.852;2022-11-15T01:33:18;32.67;;;18.83;;
76069;SDS011;64768;51.738;5.852;2022-11-15T01:36:02;34.15;;;21.88;;
76069;SDS011;64768;51.738;5.852;2022-11-15T02:00:36;33.22;;;19.23;;
76069;SDS011;64768;51.738;5.852;2022-11-15T02:03:17;35.83;;;21.17;;
76069;SDS011;64768;51.738;5.852;2022-11-15T02:05:48;28.73;;;16.15;;
76069;SDS011;64768;51.738;5.852;2022-11-15T02:08:31;33.03;;;19.85;;
76069;SDS011;64768;51.738;5.852;2022-11-15T02:11:12;31.23;;;17.38;;
76069;SDS011;64768;51.738;5.852;2022-11-15T02:13:56;29.00;;;15.98;;
76069;SDS011;64768;51.738;5.852;2022-11-15T02:16:40;33.10;;;19.65;;
76069;SDS011;64768;51.738;5.852;2022-11-15T02:19:38;36.78;;;19.30;;
76069;SDS011;64768;51.738;5.852;2022-11-15T02:22:37;36.65;;;21.48;;
76069;SDS011;64768;51.738;5.852;2022-11-15T02:25:37;29.33;;;18.48;;
76069;SDS011;64768;51.738;5.852;2022-11-15T02:28:30;39.78;;;21.25;;
76069;SDS011;64768;51.738;5.852;2022-11-15T02:34:19;31.58;;;20.25;;
76069;SDS011;64768;51.738;5.852;2022-11-15T02:37:10;32.47;;;19.33;;
76069;SDS011;64768;51.738;5.852;2022-11-15T02:39:57;35.63;;;20.05;;
76069;SDS011;64768;51.738;5.852;2022-11-15T02:42:48;34.25;;;20.17;;
76069;SDS011;64768;51.738;5.852;2022-11-15T02:45:35;29.63;;;15.82;;
76069;SDS011;64768;51.738;5.852;2022-11-15T02:51:03;36.80;;;20.35;;
76069;SDS011;64768;51.738;5.852;2022-11-15T02:53:46;28.15;;;16.42;;
76069;SDS011;64768;51.738;5.852;2022-11-15T02:56:26;40.50;;;23.67;;
76069;SDS011;64768;51.738;5.852;2022-11-15T02:59:01;33.58;;;18.10;;
76069;SDS011;64768;51.738;5.852;2022-11-15T03:01:54;19.52;;;11.68;;
76069;SDS011;64768;51.738;5.852;2022-11-15T03:04:48;32.20;;;19.58;;
76069;SDS011;64768;51.738;5.852;2022-11-15T03:07:24;37.78;;;21.00;;
76069;SDS011;64768;51.738;5.852;2022-11-15T03:10:10;35.72;;;21.70;;
76069;SDS011;64768;51.738;5.852;2022-11-15T03:12:59;39.40;;;21.55;;
76069;SDS011;64768;51.738;5.852;2022-11-15T03:15:53;42.55;;;26.20;;
76069;SDS011;64768;51.738;5.852;2022-11-15T03:18:43;47.80;;;25.98;;
76069;SDS011;64768;51.738;5.852;2022-11-15T03:24:52;49.53;;;25.35;;
76069;SDS011;64768;51.738;5.852;2022-11-15T03:30:16;20.75;;;11.07;;
76069;SDS011;64768;51.738;5.852;2022-11-15T03:32:58;33.25;;;18.30;;
76069;SDS011;64768;51.738;5.852;2022-11-15T03:35:42;13.98;;;8.50;;
76069;SDS011;64768;51.738;5.852;2022-11-15T03:38:25;25.10;;;15.68;;
76069;SDS011;64768;51.738;5.852;2022-11-15T03:44:03;38.05;;;21.00;;
76069;SDS011;64768;51.738;5.852;2022-11-15T03:46:51;9.95;;;6.45;;
76069;SDS011;64768;51.738;5.852;2022-11-15T03:49:29;21.40;;;12.50;;
76069;SDS011;64768;51.738;5.852;2022-11-15T03:52:13;28.42;;;15.13;;
76069;SDS011;64768;51.738;5.852;2022-11-15T03:54:47;27.13;;;15.18;;
76069;SDS011;64768;51.738;5.852;2022-11-15T03:57:25;23.33;;;12.93;;
76069;SDS011;64768;51.738;5.852;2022-11-15T04:00:07;37.40;;;20.33;;
76069;SDS011;64768;51.738;5.852;2022-11-15T04:02:49;34.78;;;20.02;;
76069;SDS011;64768;51.738;5.852;2022-11-15T04:05:19;37.22;;;21.17;;
76069;SDS011;64768;51.738;5.852;2022-11-15T04:07:48;33.28;;;18.27;;
76069;SDS011;64768;51.738;5.852;2022-11-15T04:10:17;40.03;;;23.52;;
76069;SDS011;64768;51.738;5.852;2022-11-15T04:15:47;41.28;;;22.90;;
76069;SDS011;64768;51.738;5.852;2022-11-15T04:18:27;39.20;;;24.35;;
76069;SDS011;64768;51.738;5.852;2022-11-15T04:21:08;47.40;;;24.63;;
76069;SDS011;64768;51.738;5.852;2022-11-15T04:23:49;38.00;;;23.70;;
76069;SDS011;64768;51.738;5.852;2022-11-15T04:26:30;37.45;;;21.98;;
76069;SDS011;64768;51.738;5.852;2022-11-15T04:29:05;38.55;;;23.17;;
76069;SDS011;64768;51.738;5.852;2022-11-15T04:31:46;34.17;;;19.42;;
76069;SDS011;64768;51.738;5.852;2022-11-15T04:34:27;37.80;;;22.23;;
76069;SDS011;64768;51.738;5.852;2022-11-15T04:37:06;32.72;;;18.95;;
76069;SDS011;64768;51.738;5.852;2022-11-15T04:39:38;35.88;;;22.02;;
76069;SDS011;64768;51.738;5.852;2022-11-15T04:42:19;43.67;;;23.30;;
76069;SDS011;64768;51.738;5.852;2022-11-15T04:45:04;46.15;;;25.63;;
76069;SDS011;64768;51.738;5.852;2022-11-15T04:47:45;24.75;;;12.85;;
76069;SDS011;64768;51.738;5.852;2022-11-15T04:50:26;44.30;;;23.13;;
76069;SDS011;64768;51.738;5.852;2022-11-15T04:53:06;47.65;;;25.10;;
76069;SDS011;64768;51.738;5.852;2022-11-15T04:55:38;44.10;;;22.73;;
76069;SDS011;64768;51.738;5.852;2022-11-15T04:58:18;43.55;;;23.98;;
76069;SDS011;64768;51.738;5.852;2022-11-15T05:04:13;47.58;;;24.55;;
76069;SDS011;64768;51.738;5.852;2022-11-15T05:06:59;42.40;;;23.30;;
76069;SDS011;64768;51.738;5.852;2022-11-15T05:09:28;44.42;;;24.40;;
76069;SDS011;64768;51.738;5.852;2022-11-15T05:12:09;32.55;;;18.08;;
76069;SDS011;64768;51.738;5.852;2022-11-15T05:14:49;41.60;;;23.33;;
76069;SDS011;64768;51.738;5.852;2022-11-15T05:17:30;40.88;;;23.17;;
76069;SDS011;64768;51.738;5.852;2022-11-15T05:20:03;38.58;;;21.73;;
76069;SDS011;64768;51.738;5.852;2022-11-15T05:22:34;23.60;;;13.52;;
76069;SDS011;64768;51.738;5.852;2022-11-15T05:25:15;24.88;;;14.65;;
76069;SDS011;64768;51.738;5.852;2022-11-15T05:27:56;29.65;;;17.42;;
76069;SDS011;64768;51.738;5.852;2022-11-15T05:30:31;17.83;;;10.55;;
76069;SDS011;64768;51.738;5.852;2022-11-15T05:33:02;39.67;;;23.23;;
76069;SDS011;64768;51.738;5.852;2022-11-15T05:38:47;20.27;;;13.68;;
76069;SDS011;64768;51.738;5.852;2022-11-15T05:41:29;43.33;;;24.48;;
76069;SDS011;64768;51.738;5.852;2022-11-15T05:44:02;32.63;;;19.75;;
76069;SDS011;64768;51.738;5.852;2022-11-15T05:46:45;47.20;;;24.52;;
76069;SDS011;64768;51.738;5.852;2022-11-15T05:49:19;48.17;;;26.95;;
76069;SDS011;64768;51.738;5.852;2022-11-15T05:51:51;26.20;;;14.13;;
76069;SDS011;64768;51.738;5.852;2022-11-15T05:54:26;52.28;;;23.52;;
76069;SDS011;64768;51.738;5.852;2022-11-15T05:57:07;47.55;;;25.70;;
76069;SDS011;64768;51.738;5.852;2022-11-15T05:59:38;57.08;;;30.38;;
76069;SDS011;64768;51.738;5.852;2022-11-15T06:02:19;60.63;;;28.92;;
76069;SDS011;64768;51.738;5.852;2022-11-15T06:04:51;54.25;;;27.63;;
76069;SDS011;64768;51.738;5.852;2022-11-15T06:10:16;60.80;;;27.80;;
76069;SDS011;64768;51.738;5.852;2022-11-15T06:12:46;45.63;;;19.77;;
76069;SDS011;64768;51.738;5.852;2022-11-15T06:15:15;66.53;;;29.40;;
76069;SDS011;64768;51.738;5.852;2022-11-15T06:17:56;65.53;;;28.48;;
76069;SDS011;64768;51.738;5.852;2022-11-15T06:20:26;43.15;;;20.25;;
76069;SDS011;64768;51.738;5.852;2022-11-15T06:23:02;42.25;;;22.27;;
76069;SDS011;64768;51.738;5.852;2022-11-15T06:25:47;59.47;;;26.52;;
76069;SDS011;64768;51.738;5.852;2022-11-15T06:28:19;29.85;;;15.30;;
76069;SDS011;64768;51.738;5.852;2022-11-15T06:30:51;43.85;;;20.60;;
76069;SDS011;64768;51.738;5.852;2022-11-15T06:33:20;53.58;;;26.92;;
76069;SDS011;64768;51.738;5.852;2022-11-15T06:35:49;60.55;;;26.27;;
76069;SDS011;64768;51.738;5.852;2022-11-15T06:38:30;47.60;;;22.25;;
76069;SDS011;64768;51.738;5.852;2022-11-15T06:41:05;52.00;;;24.77;;
76069;SDS011;64768;51.738;5.852;2022-11-15T06:43:36;26.77;;;14.95;;
76069;SDS011;64768;51.738;5.852;2022-11-15T06:46:06;24.15;;;14.45;;
76069;SDS011;64768;51.738;5.852;2022-11-15T06:48:35;32.30;;;17.63;;
76069;SDS011;64768;51.738;5.852;2022-11-15T06:51:05;13.90;;;8.38;;
76069;SDS011;64768;51.738;5.852;2022-11-15T06:53:34;17.20;;;10.40;;
76069;SDS011;64768;51.738;5.852;2022-11-15T06:56:08;21.15;;;11.18;;
76069;SDS011;64768;51.738;5.852;2022-11-15T06:58:41;20.55;;;10.50;;
76069;SDS011;64768;51.738;5.852;2022-11-15T07:01:11;26.35;;;13.70;;
76069;SDS011;64768;51.738;5.852;2022-11-15T07:03:40;26.83;;;12.75;;
76069;SDS011;64768;51.738;5.852;2022-11-15T07:06:11;15.65;;;8.82;;
76069;SDS011;64768;51.738;5.852;2022-11-15T07:08:40;27.42;;;12.60;;
76069;SDS011;64768;51.738;5.852;2022-11-15T07:11:13;22.77;;;12.52;;
76069;SDS011;64768;51.738;5.852;2022-11-15T07:13:42;26.33;;;13.55;;
76069;SDS011;64768;51.738;5.852;2022-11-15T07:16:11;26.25;;;13.00;;
76069;SDS011;64768;51.738;5.852;2022-11-15T07:23:40;15.10;;;8.95;;
76069;SDS011;64768;51.738;5.852;2022-11-15T07:29:10;22.55;;;11.35;;
76069;SDS011;64768;51.738;5.852;2022-11-15T07:31:40;17.77;;;9.23;;
76069;SDS011;64768;51.738;5.852;2022-11-15T07:34:09;17.15;;;10.20;;
76069;SDS011;64768;51.738;5.852;2022-11-15T07:36:38;14.98;;;7.95;;
76069;SDS011;64768;51.738;5.852;2022-11-15T07:39:07;36.40;;;17.73;;
76069;SDS011;64768;51.738;5.852;2022-11-15T07:41:52;27.85;;;15.02;;
76069;SDS011;64768;51.738;5.852;2022-11-15T07:44:42;20.52;;;10.20;;
76069;SDS011;64768;51.738;5.852;2022-11-15T07:47:23;13.52;;;5.70;;
76069;SDS011;64768;51.738;5.852;2022-11-15T07:50:06;12.30;;;6.40;;
76069;SDS011;64768;51.738;5.852;2022-11-15T07:52:47;15.55;;;6.68;;
76069;SDS011;64768;51.738;5.852;2022-11-15T07:55:34;16.27;;;7.88;;
76069;SDS011;64768;51.738;5.852;2022-11-15T07:58:12;19.92;;;10.65;;
76069;SDS011;64768;51.738;5.852;2022-11-15T08:00:42;23.02;;;11.38;;
76069;SDS011;64768;51.738;5.852;2022-11-15T08:03:23;21.42;;;10.10;;
76069;SDS011;64768;51.738;5.852;2022-11-15T08:06:04;18.70;;;10.57;;
76069;SDS011;64768;51.738;5.852;2022-11-15T08:08:46;22.48;;;11.02;;
76069;SDS011;64768;51.738;5.852;2022-11-15T08:11:15;19.05;;;10.35;;
76069;SDS011;64768;51.738;5.852;2022-11-15T08:16:59;21.20;;;11.15;;
76069;SDS011;64768;51.738;5.852;2022-11-15T08:19:31;17.30;;;9.75;;
76069;SDS011;64768;51.738;5.852;2022-11-15T08:22:06;12.02;;;8.95;;
76069;SDS011;64768;51.738;5.852;2022-11-15T08:24:47;13.95;;;9.18;;
76069;SDS011;64768;51.738;5.852;2022-11-15T08:27:28;11.30;;;7.72;;
76069;SDS011;64768;51.738;5.852;2022-11-15T08:30:09;16.48;;;10.27;;
76069;SDS011;64768;51.738;5.852;2022-11-15T08:32:55;18.48;;;10.30;;
76069;SDS011;64768;51.738;5.852;2022-11-15T08:35:25;20.40;;;14.10;;
76069;SDS011;64768;51.738;5.852;2022-11-15T08:37:57;17.00;;;10.77;;
76069;SDS011;64768;51.738;5.852;2022-11-15T08:40:26;17.48;;;9.68;;
76069;SDS011;64768;51.738;5.852;2022-11-15T08:42:56;12.93;;;7.28;;
76069;SDS011;64768;51.738;5.852;2022-11-15T08:45:27;19.85;;;7.85;;
76069;SDS011;64768;51.738;5.852;2022-11-15T08:48:00;14.25;;;7.82;;
76069;SDS011;64768;51.738;5.852;2022-11-15T08:50:31;14.52;;;8.98;;
76069;SDS011;64768;51.738;5.852;2022-11-15T08:53:12;9.50;;;5.85;;
76069;SDS011;64768;51.738;5.852;2022-11-15T08:55:41;10.43;;;6.45;;
76069;SDS011;64768;51.738;5.852;2022-11-15T08:58:22;8.88;;;5.60;;
76069;SDS011;64768;51.738;5.852;2022-11-15T09:01:03;8.30;;;5.40;;
76069;SDS011;64768;51.738;5.852;2022-11-15T09:06:44;9.63;;;6.18;;
76069;SDS011;64768;51.738;5.852;2022-11-15T09:09:19;16.55;;;11.23;;
76069;SDS011;64768;51.738;5.852;2022-11-15T09:11:58;8.05;;;5.05;;
76069;SDS011;64768;51.738;5.852;2022-11-15T09:14:26;10.82;;;6.63;;
76069;SDS011;64768;51.738;5.852;2022-11-15T09:16:59;11.32;;;7.75;;
76069;SDS011;64768;51.738;5.852;2022-11-15T09:25:34;16.30;;;10.98;;
76069;SDS011;64768;51.738;5.852;2022-11-15T09:28:05;13.00;;;8.10;;
76069;SDS011;64768;51.738;5.852;2022-11-15T09:30:35;14.00;;;7.13;;
76069;SDS011;64768;51.738;5.852;2022-11-15T09:35:49;10.82;;;7.35;;
76069;SDS011;64768;51.738;5.852;2022-11-15T09:38:39;11.68;;;6.68;;
76069;SDS011;64768;51.738;5.852;2022-11-15T09:41:24;11.63;;;6.60;;
76069;SDS011;64768;51.738;5.852;2022-11-15T09:44:18;11.88;;;7.80;;
76069;SDS011;64768;51.738;5.852;2022-11-15T09:47:49;9.55;;;7.35;;
76069;SDS011;64768;51.738;5.852;2022-11-15T09:50:33;8.50;;;5.45;;
76069;SDS011;64768;51.738;5.852;2022-11-15T09:53:12;7.30;;;5.22;;
76069;SDS011;64768;51.738;5.852;2022-11-15T09:56:01;6.15;;;4.22;;
76069;SDS011;64768;51.738;5.852;2022-11-15T09:59:19;4.68;;;3.00;;
76069;SDS011;64768;51.738;5.852;2022-11-15T10:02:00;7.75;;;4.95;;
76069;SDS011;64768;51.738;5.852;2022-11-15T10:04:45;5.78;;;3.50;;
76069;SDS011;64768;51.738;5.852;2022-11-15T10:07:37;5.88;;;3.63;;
76069;SDS011;64768;51.738;5.852;2022-11-15T10:10:45;5.05;;;3.00;;
76069;SDS011;64768;51.738;5.852;2022-11-15T10:13:34;3.80;;;3.15;;
76069;SDS011;64768;51.738;5.852;2022-11-15T10:16:31;8.60;;;3.83;;
76069;SDS011;64768;51.738;5.852;2022-11-15T10:19:24;5.22;;;3.55;;
76069;SDS011;64768;51.738;5.852;2022-11-15T10:22:16;4.65;;;2.67;;
76069;SDS011;64768;51.738;5.852;2022-11-15T10:24:59;4.75;;;3.00;;
76069;SDS011;64768;51.738;5.852;2022-11-15T10:27:47;4.15;;;2.40;;
76069;SDS011;64768;51.738;5.852;2022-11-15T10:33:38;3.45;;;2.22;;
76069;SDS011;64768;51.738;5.852;2022-11-15T10:36:16;4.40;;;2.60;;
76069;SDS011;64768;51.738;5.852;2022-11-15T10:38:53;3.25;;;1.83;;
76069;SDS011;64768;51.738;5.852;2022-11-15T10:41:38;4.88;;;2.45;;
76069;SDS011;64768;51.738;5.852;2022-11-15T10:53:01;4.60;;;2.22;;
76069;SDS011;64768;51.738;5.852;2022-11-15T10:55:57;7.63;;;2.08;;
76069;SDS011;64768;51.738;5.852;2022-11-15T10:58:50;3.10;;;1.92;;
76069;SDS011;64768;51.738;5.852;2022-11-15T11:01:35;2.00;;;1.30;;
76069;SDS011;64768;51.738;5.852;2022-11-15T11:04:14;6.72;;;1.90;;
76069;SDS011;64768;51.738;5.852;2022-11-15T11:06:50;3.60;;;1.52;;
76069;SDS011;64768;51.738;5.852;2022-11-15T11:09:23;3.10;;;1.73;;
76069;SDS011;64768;51.738;5.852;2022-11-15T11:12:01;2.25;;;1.33;;
76069;SDS011;64768;51.738;5.852;2022-11-15T11:14:41;2.83;;;1.25;;
76069;SDS011;64768;51.738;5.852;2022-11-15T11:17:32;3.67;;;1.42;;
76069;SDS011;64768;51.738;5.852;2022-11-15T11:20:34;3.78;;;2.25;;
76069;SDS011;64768;51.738;5.852;2022-11-15T11:23:30;4.35;;;2.22;;
76069;SDS011;64768;51.738;5.852;2022-11-15T11:26:24;4.25;;;1.98;;
76069;SDS011;64768;51.738;5.852;2022-11-15T11:29:19;5.60;;;2.47;;
76069;SDS011;64768;51.738;5.852;2022-11-15T11:31:56;5.35;;;2.25;;
76069;SDS011;64768;51.738;5.852;2022-11-15T11:34:34;3.58;;;1.80;;
76069;SDS011;64768;51.738;5.852;2022-11-15T11:37:28;5.97;;;2.38;;
76069;SDS011;64768;51.738;5.852;2022-11-15T11:40:12;6.70;;;1.92;;
76069;SDS011;64768;51.738;5.852;2022-11-15T11:42:53;4.03;;;1.77;;
76069;SDS011;64768;51.738;5.852;2022-11-15T11:45:38;4.35;;;1.60;;
76069;SDS011;64768;51.738;5.852;2022-11-15T11:48:19;4.55;;;1.70;;
76069;SDS011;64768;51.738;5.852;2022-11-15T11:51:03;2.83;;;1.40;;
76069;SDS011;64768;51.738;5.852;2022-11-15T11:53:37;5.30;;;1.52;;
76069;SDS011;64768;51.738;5.852;2022-11-15T11:56:18;4.70;;;1.48;;
76069;SDS011;64768;51.738;5.852;2022-11-15T11:58:52;3.33;;;1.70;;
76069;SDS011;64768;51.738;5.852;2022-11-15T12:01:24;4.07;;;1.50;;
76069;SDS011;64768;51.738;5.852;2022-11-15T12:03:57;4.65;;;1.48;;
76069;SDS011;64768;51.738;5.852;2022-11-15T12:06:48;5.63;;;1.50;;
76069;SDS011;64768;51.738;5.852;2022-11-15T12:09:21;4.03;;;1.58;;
76069;SDS011;64768;51.738;5.852;2022-11-15T12:12:01;6.85;;;2.25;;
76069;SDS011;64768;51.738;5.852;2022-11-15T12:14:38;4.47;;;2.17;;
76069;SDS011;64768;51.738;5.852;2022-11-15T12:17:12;3.88;;;1.92;;
76069;SDS011;64768;51.738;5.852;2022-11-15T12:19:55;8.30;;;2.28;;
76069;SDS011;64768;51.738;5.852;2022-11-15T12:22:28;4.00;;;1.45;;
76069;SDS011;64768;51.738;5.852;2022-11-15T12:25:06;4.43;;;1.67;;
76069;SDS011;64768;51.738;5.852;2022-11-15T12:27:48;2.22;;;1.33;;
76069;SDS011;64768;51.738;5.852;2022-11-15T12:30:22;7.57;;;1.52;;
76069;SDS011;64768;51.738;5.852;2022-11-15T12:32:57;3.33;;;1.50;;
76069;SDS011;64768;51.738;5.852;2022-11-15T12:35:29;4.18;;;1.48;;
76069;SDS011;64768;51.738;5.852;2022-11-15T12:38:03;3.20;;;1.60;;
76069;SDS011;64768;51.738;5.852;2022-11-15T12:40:34;3.65;;;1.45;;
76069;SDS011;64768;51.738;5.852;2022-11-15T12:46:10;2.55;;;1.70;;
76069;SDS011;64768;51.738;5.852;2022-11-15T12:48:52;5.15;;;1.50;;
76069;SDS011;64768;51.738;5.852;2022-11-15T13:03:19;3.08;;;1.40;;
76069;SDS011;64768;51.738;5.852;2022-11-15T13:05:53;3.50;;;1.63;;
76069;SDS011;64768;51.738;5.852;2022-11-15T13:08:45;3.08;;;1.15;;
76069;SDS011;64768;51.738;5.852;2022-11-15T13:17:16;4.97;;;1.42;;
76069;SDS011;64768;51.738;5.852;2022-11-15T13:20:18;4.35;;;1.55;;
76069;SDS011;64768;51.738;5.852;2022-11-15T13:22:50;5.10;;;1.60;;
76069;SDS011;64768;51.738;5.852;2022-11-15T13:25:26;7.40;;;1.50;;
76069;SDS011;64768;51.738;5.852;2022-11-15T13:28:03;5.40;;;1.58;;
76069;SDS011;64768;51.738;5.852;2022-11-15T13:30:48;5.68;;;1.55;;
76069;SDS011;64768;51.738;5.852;2022-11-15T13:33:22;4.65;;;1.35;;
76069;SDS011;64768;51.738;5.852;2022-11-15T13:35:54;2.25;;;1.25;;
76069;SDS011;64768;51.738;5.852;2022-11-15T13:38:25;5.22;;;1.58;;
76069;SDS011;64768;51.738;5.852;2022-11-15T13:40:56;4.47;;;1.08;;
76069;SDS011;64768;51.738;5.852;2022-11-15T13:43:31;4.05;;;1.30;;
76069;SDS011;64768;51.738;5.852;2022-11-15T13:46:06;4.03;;;1.73;;
76069;SDS011;64768;51.738;5.852;2022-11-15T13:48:42;2.33;;;1.02;;
76069;SDS011;64768;51.738;5.852;2022-11-15T13:51:15;5.28;;;1.30;;
76069;SDS011;64768;51.738;5.852;2022-11-15T13:53:50;5.90;;;1.63;;
76069;SDS011;64768;51.738;5.852;2022-11-15T13:56:21;5.07;;;1.23;;
76069;SDS011;64768;51.738;5.852;2022-11-15T14:01:20;3.97;;;1.20;;
76069;SDS011;64768;51.738;5.852;2022-11-15T14:03:54;3.55;;;1.20;;
76069;SDS011;64768;51.738;5.852;2022-11-15T14:06:25;4.88;;;1.27;;
76069;SDS011;64768;51.738;5.852;2022-11-15T14:08:59;4.80;;;1.42;;
76069;SDS011;64768;51.738;5.852;2022-11-15T14:11:32;5.07;;;1.33;;
76069;SDS011;64768;51.738;5.852;2022-11-15T14:14:10;5.15;;;0.90;;
76069;SDS011;64768;51.738;5.852;2022-11-15T14:16:41;3.80;;;1.25;;
76069;SDS011;64768;51.738;5.852;2022-11-15T14:27:45;3.08;;;1.13;;
76069;SDS011;64768;51.738;5.852;2022-11-15T14:30:41;6.15;;;1.30;;
76069;SDS011;64768;51.738;5.852;2022-11-15T14:36:05;3.78;;;1.20;;
76069;SDS011;64768;51.738;5.852;2022-11-15T14:38:34;2.90;;;1.05;;
76069;SDS011;64768;51.738;5.852;2022-11-15T14:41:03;2.60;;;1.02;;
76069;SDS011;64768;51.738;5.852;2022-11-15T14:43:33;4.68;;;1.17;;
76069;SDS011;64768;51.738;5.852;2022-11-15T14:46:03;5.47;;;1.08;;
76069;SDS011;64768;51.738;5.852;2022-11-15T14:48:32;3.60;;;1.15;;
76069;SDS011;64768;51.738;5.852;2022-11-15T14:51:08;4.05;;;1.13;;
76069;SDS011;64768;51.738;5.852;2022-11-15T14:53:39;4.00;;;1.10;;
76069;SDS011;64768;51.738;5.852;2022-11-15T14:56:12;3.42;;;0.93;;
76069;SDS011;64768;51.738;5.852;2022-11-15T14:58:41;2.92;;;1.10;;
76069;SDS011;64768;51.738;5.852;2022-11-15T15:01:12;2.92;;;1.20;;
76069;SDS011;64768;51.738;5.852;2022-11-15T15:03:41;4.95;;;1.23;;
76069;SDS011;64768;51.738;5.852;2022-11-15T15:06:13;3.03;;;1.20;;
76069;SDS011;64768;51.738;5.852;2022-11-15T15:08:42;6.30;;;1.27;;
76069;SDS011;64768;51.738;5.852;2022-11-15T15:11:11;3.72;;;1.30;;
76069;SDS011;64768;51.738;5.852;2022-11-15T15:13:42;4.18;;;1.52;;
76069;SDS011;64768;51.738;5.852;2022-11-15T15:16:11;5.40;;;1.50;;
76069;SDS011;64768;51.738;5.852;2022-11-15T15:18:49;3.15;;;1.27;;
76069;SDS011;64768;51.738;5.852;2022-11-15T15:21:23;3.50;;;1.15;;
76069;SDS011;64768;51.738;5.852;2022-11-15T15:23:53;3.60;;;1.50;;
76069;SDS011;64768;51.738;5.852;2022-11-15T15:26:24;2.20;;;1.30;;
76069;SDS011;64768;51.738;5.852;2022-11-15T15:28:53;3.67;;;1.13;;
76069;SDS011;64768;51.738;5.852;2022-11-15T15:31:22;3.80;;;1.25;;
76069;SDS011;64768;51.738;5.852;2022-11-15T15:33:57;3.40;;;1.20;;
76069;SDS011;64768;51.738;5.852;2022-11-15T15:36:29;2.47;;;1.20;;
76069;SDS011;64768;51.738;5.852;2022-11-15T15:38:58;3.90;;;1.45;;
76069;SDS011;64768;51.738;5.852;2022-11-15T15:41:27;5.10;;;1.33;;
76069;SDS011;64768;51.738;5.852;2022-11-15T15:43:56;5.70;;;1.80;;
76069;SDS011;64768;51.738;5.852;2022-11-15T15:46:26;2.95;;;1.05;;
76069;SDS011;64768;51.738;5.852;2022-11-15T15:48:54;8.32;;;1.40;;
76069;SDS011;64768;51.738;5.852;2022-11-15T15:51:23;3.00;;;1.67;;
76069;SDS011;64768;51.738;5.852;2022-11-15T15:53:54;4.32;;;1.60;;
76069;SDS011;64768;51.738;5.852;2022-11-15T15:56:24;3.60;;;1.70;;
76069;SDS011;64768;51.738;5.852;2022-11-15T15:58:53;5.53;;;1.60;;
76069;SDS011;64768;51.738;5.852;2022-11-15T16:01:23;6.97;;;1.90;;
76069;SDS011;64768;51.738;5.852;2022-11-15T16:03:51;2.28;;;1.45;;
76069;SDS011;64768;51.738;5.852;2022-11-15T16:06:34;4.72;;;1.67;;
76069;SDS011;64768;51.738;5.852;2022-11-15T16:09:08;6.57;;;2.03;;
76069;SDS011;64768;51.738;5.852;2022-11-15T16:11:41;4.60;;;1.90;;
76069;SDS011;64768;51.738;5.852;2022-11-15T16:14:11;6.60;;;1.90;;
76069;SDS011;64768;51.738;5.852;2022-11-15T16:16:39;4.65;;;1.60;;
76069;SDS011;64768;51.738;5.852;2022-11-15T16:19:08;5.38;;;2.10;;
76069;SDS011;64768;51.738;5.852;2022-11-15T16:21:39;3.55;;;1.60;;
76069;SDS011;64768;51.738;5.852;2022-11-15T16:24:10;2.95;;;1.60;;
76069;SDS011;64768;51.738;5.852;2022-11-15T16:26:39;4.82;;;1.73;;
76069;SDS011;64768;51.738;5.852;2022-11-15T16:29:08;7.18;;;1.80;;
76069;SDS011;64768;51.738;5.852;2022-11-15T16:31:38;4.53;;;1.88;;
76069;SDS011;64768;51.738;5.852;2022-11-15T16:34:07;3.92;;;1.70;;
76069;SDS011;64768;51.738;5.852;2022-11-15T16:36:36;5.20;;;1.90;;
76069;SDS011;64768;51.738;5.852;2022-11-15T16:39:04;4.80;;;2.15;;
76069;SDS011;64768;51.738;5.852;2022-11-15T16:41:36;3.58;;;1.50;;
76069;SDS011;64768;51.738;5.852;2022-11-15T16:44:04;6.38;;;2.05;;
76069;SDS011;64768;51.738;5.852;2022-11-15T16:46:33;4.45;;;2.10;;
76069;SDS011;64768;51.738;5.852;2022-11-15T16:49:02;4.53;;;2.00;;
76069;SDS011;64768;51.738;5.852;2022-11-15T16:51:32;5.55;;;2.28;;
76069;SDS011;64768;51.738;5.852;2022-11-15T16:54:01;5.93;;;2.60;;
76069;SDS011;64768;51.738;5.852;2022-11-15T16:56:29;3.42;;;2.40;;
76069;SDS011;64768;51.738;5.852;2022-11-15T16:59:01;5.47;;;2.22;;
76069;SDS011;64768;51.738;5.852;2022-11-15T17:01:30;4.10;;;2.60;;
76069;SDS011;64768;51.738;5.852;2022-11-15T17:04:10;4.32;;;2.60;;
76069;SDS011;64768;51.738;5.852;2022-11-15T17:06:43;5.00;;;2.60;;
76069;SDS011;64768;51.738;5.852;2022-11-15T17:09:13;4.63;;;3.05;;
76069;SDS011;64768;51.738;5.852;2022-11-15T17:11:43;4.82;;;2.90;;
76069;SDS011;64768;51.738;5.852;2022-11-15T17:14:15;5.13;;;3.00;;
76069;SDS011;64768;51.738;5.852;2022-11-15T17:16:47;7.30;;;3.25;;
76069;SDS011;64768;51.738;5.852;2022-11-15T17:19:16;5.85;;;4.00;;
76069;SDS011;64768;51.738;5.852;2022-11-15T17:21:47;5.97;;;3.88;;
76069;SDS011;64768;51.738;5.852;2022-11-15T17:24:17;7.32;;;3.78;;
76069;SDS011;64768;51.738;5.852;2022-11-15T17:26:46;5.35;;;3.72;;
76069;SDS011;64768;51.738;5.852;2022-11-15T17:29:18;6.10;;;3.90;;
76069;SDS011;64768;51.738;5.852;2022-11-15T17:31:47;7.90;;;4.68;;
76069;SDS011;64768;51.738;5.852;2022-11-15T17:34:23;8.73;;;4.22;;
76069;SDS011;64768;51.738;5.852;2022-11-15T17:36:51;6.05;;;4.55;;
76069;SDS011;64768;51.738;5.852;2022-11-15T17:39:20;6.85;;;4.72;;
76069;SDS011;64768;51.738;5.852;2022-11-15T17:41:49;6.25;;;4.82;;